Time;durP1;ratioP1;P1;durP2;ratioP2;P2;SDS_P1;SDS_P2;PMS_P1;PMS_P2;Temp;Humidity;BMP_temperature;BMP_pressure;BME280_temperature;BME280_humidity;BME280_pressure;Samples;Min_cycle;Max_cycle;Signal;HPM_P1;HPM_P2
2023/05/27 00:01:28;;;;;;;;;;;;;;;22.38;55.88;100208.69;4438550;32;33512;-83
2023/05/27 00:03:56;;;;;;;;;;;;;;;21.72;57.72;100211.91;4438763;32;33919;-83
2023/05/27 00:06:24;;;;;;;;;;;;;;;22.59;55.29;100207.88;4438154;32;34093;-86
2023/05/27 00:08:51;;;;;;;;;;;;;;;22.75;54.67;100200.88;4424360;32;34883;-85
2023/05/27 00:11:18;;;;;;;;;;;;;;;22.31;56.65;100202.53;4438356;32;33199;-84
2023/05/27 00:13:46;;;;;;;;;;;;;;;22.55;55.76;100191.16;4438277;32;33992;-83
2023/05/27 00:16:13;;;;;;;;;;;;;;;22.86;54.70;100193.84;4438865;32;33992;-86
2023/05/27 00:18:41;;;;;;;;;;;;;;;24.00;51.35;100191.09;4424805;32;34559;-83
2023/05/27 00:21:08;;;;;;;;;;;;;;;25.14;48.08;100190.41;4438861;32;33545;-83
2023/05/27 00:23:36;;;;;;;;;;;;;;;24.71;48.61;100190.75;4424748;32;34966;-84
2023/05/27 00:26:03;;;;;;;;;;;;;;;24.34;49.61;100193.59;4424697;32;34098;-85
2023/05/27 00:28:31;;;;;;;;;;;;;;;24.90;47.46;100191.50;4438719;32;34690;-85
2023/05/27 00:30:58;;;;;;;;;;;;;;;25.55;45.93;100191.81;4439063;32;33623;-85
2023/05/27 00:33:26;;;;;;;;;;;;;;;24.91;47.40;100199.41;4438906;32;34843;-84
2023/05/27 00:35:53;;;;;;;;;;;;;;;25.18;46.68;100186.84;4438474;32;34018;-84
2023/05/27 00:38:20;;;;;;;;;;;;;;;24.19;49.04;100185.72;4438092;32;34558;-83
2023/05/27 00:40:48;;;;;;;;;;;;;;;24.56;48.57;100185.56;4436663;32;33611;-83
2023/05/27 00:43:15;;;;;;;;;;;;;;;24.18;49.28;100186.59;4423197;32;33995;-84
2023/05/27 00:45:42;;;;;;;;;;;;;;;24.01;49.64;100186.66;4436022;32;34242;-85
2023/05/27 00:48:10;;;;;;;;;;;;;;;24.17;49.52;100187.50;4433619;32;34453;-82
2023/05/27 00:50:37;;;;;;;;;;;;;;;24.30;49.52;100181.28;4438766;32;33296;-85
2023/05/27 00:53:04;;;;;;;;;;;;;;;23.72;51.69;100185.87;4437245;32;34279;-83
2023/05/27 00:55:32;;;;;;;;;;;;;;;24.25;49.47;100186.56;4433606;32;32905;-85
2023/05/27 00:57:59;;;;;;;;;;;;;;;24.44;48.98;100182.06;4437721;32;34236;-84
2023/05/27 01:00:27;;;;;;;;;;;;;;;24.22;49.24;100183.97;4438128;32;34117;-85
2023/05/27 01:02:55;;;;;;;;;;;;;;;24.42;47.88;100180.31;4438674;32;35095;-82
2023/05/27 01:05:22;;;;;;;;;;;;;;;24.32;47.99;100182.13;4438285;32;33934;-84
2023/05/27 01:08:11;;;;;;;;;;;;;;;23.61;51.29;100182.38;4438460;32;34906;-85
2023/05/27 01:10:47;;;;;;;;;;;;;;;23.36;52.54;100190.34;4422132;32;33521;-84
2023/05/27 01:13:33;;;;;;;;;;;;;;;23.69;51.27;100195.56;4443406;32;34230;-84
2023/05/27 01:16:01;;;;;;;;;;;;;;;23.26;52.77;100185.94;4437598;32;33844;-83
2023/05/27 01:18:33;;;;;;;;;;;;;;;22.37;56.18;100188.50;4424046;32;34164;-84
2023/05/27 01:21:02;;;;;;;;;;;;;;;22.83;55.10;100179.75;4438319;32;33423;-82
2023/05/27 01:23:30;;;;;;;;;;;;;;;23.06;54.18;100182.44;4437724;32;34766;-86
2023/05/27 01:25:58;;;;;;;;;;;;;;;24.75;47.72;100176.59;4438283;32;34241;-85
2023/05/27 01:28:26;;;;;;;;;;;;;;;25.06;46.08;100179.00;4437988;32;35163;-83
2023/05/27 01:30:55;;;;;;;;;;;;;;;26.06;43.88;100170.94;4438193;32;33590;-83
2023/05/27 01:33:23;;;;;;;;;;;;;;;26.34;43.03;100165.22;4424740;32;33997;-84
2023/05/27 01:35:54;;;;;;;;;;;;;;;25.90;43.34;100164.91;4438328;32;34677;-84
2023/05/27 01:38:21;;;;;;;;;;;;;;;25.86;43.90;100170.25;4427621;32;35173;-84
2023/05/27 01:40:49;;;;;;;;;;;;;;;25.96;42.68;100169.28;4424417;32;33954;-84
2023/05/27 01:43:16;;;;;;;;;;;;;;;26.08;42.49;100171.78;4438463;32;33898;-82
2023/05/27 01:45:43;;;;;;;;;;;;;;;25.87;42.94;100169.37;4438490;32;34905;-83
2023/05/27 01:48:12;;;;;;;;;;;;;;;26.78;41.48;100161.06;4438202;32;34452;-83
2023/05/27 01:50:39;;;;;;;;;;;;;;;25.84;42.99;100166.72;4437685;32;33398;-82
2023/05/27 01:53:07;;;;;;;;;;;;;;;24.93;45.50;100165.84;4438056;32;34881;-84
2023/05/27 01:55:34;;;;;;;;;;;;;;;24.61;47.00;100162.53;4429839;32;34618;-83
2023/05/27 01:58:02;;;;;;;;;;;;;;;24.31;48.51;100162.69;4424398;32;34176;-83
2023/05/27 02:00:29;;;;;;;;;;;;;;;23.86;49.92;100169.97;4430870;32;34258;-84
2023/05/27 02:02:57;;;;;;;;;;;;;;;24.28;47.43;100159.19;4446554;32;34455;-84
2023/05/27 02:05:24;;;;;;;;;;;;;;;23.86;48.92;100161.19;4436336;32;34198;-83
2023/05/27 02:07:52;;;;;;;;;;;;;;;22.19;55.20;100162.87;4438004;32;34475;-83
2023/05/27 02:10:19;;;;;;;;;;;;;;;22.15;55.69;100169.88;4437913;32;33670;-84
2023/05/27 02:12:48;;;;;;;;;;;;;;;22.04;55.62;100168.09;4414835;32;32402;-81
2023/05/27 02:15:15;;;;;;;;;;;;;;;21.36;58.25;100171.25;4437473;32;34203;-83
2023/05/27 02:17:46;;;;;;;;;;;;;;;20.97;59.62;100167.41;4411138;32;32894;-84
2023/05/27 02:20:15;;;;;;;;;;;;;;;20.96;59.63;100175.31;4420908;32;33604;-82
2023/05/27 02:22:42;;;;;;;;;;;;;;;20.44;60.91;100170.41;4431590;32;34087;-84
2023/05/27 02:25:11;;;;;;;;;;;;;;;20.29;61.92;100165.84;4447035;32;34020;-85
2023/05/27 02:27:39;;;;;;;;;;;;;;;21.73;58.04;100171.50;4437988;32;32819;-82
2023/05/27 02:30:07;;;;;;;;;;;;;;;20.46;61.29;100171.31;4438261;32;33935;-84
2023/05/27 02:32:34;;;;;;;;;;;;;;;21.11;58.46;100171.91;4441533;32;34274;-82
2023/05/27 02:35:02;;;;;;;;;;;;;;;23.09;52.36;100170.09;4441869;32;34898;-82
2023/05/27 02:37:30;;;;;;;;;;;;;;;21.44;57.12;100173.97;4437411;32;34589;-82
2023/05/27 02:39:58;;;;;;;;;;;;;;;21.29;57.22;100172.06;4437610;32;33343;-82
2023/05/27 02:42:26;;;;;;;;;;;;;;;22.31;54.45;100169.97;4437819;32;34668;-84
2023/05/27 02:44:54;;;;;;;;;;;;;;;22.35;54.46;100169.13;4437924;32;34263;-83
2023/05/27 02:47:22;;;;;;;;;;;;;;;21.28;57.04;100177.31;4437636;32;34173;-83
2023/05/27 02:49:50;;;;;;;;;;;;;;;21.32;57.18;100173.81;4438078;32;33857;-83
2023/05/27 02:52:17;;;;;;;;;;;;;;;21.68;57.48;100178.47;4428054;32;33973;-81
2023/05/27 02:54:45;;;;;;;;;;;;;;;20.71;61.20;100176.84;4443443;32;34194;-82
2023/05/27 02:57:12;;;;;;;;;;;;;;;19.74;62.50;100176.59;4437786;32;35088;-82
2023/05/27 02:59:40;;;;;;;;;;;;;;;20.07;61.56;100172.63;4411483;32;34151;-85
2023/05/27 03:02:07;;;;;;;;;;;;;;;19.57;63.70;100178.06;4436735;32;34202;-84
2023/05/27 03:04:34;;;;;;;;;;;;;;;19.54;64.43;100180.63;4436070;32;34234;-81
2023/05/27 03:07:02;;;;;;;;;;;;;;;19.64;64.28;100186.06;4422617;32;33688;-81
2023/05/27 03:09:30;;;;;;;;;;;;;;;20.20;61.97;100182.44;4437201;32;34233;-84
2023/05/27 03:11:57;;;;;;;;;;;;;;;19.93;62.42;100182.06;4447017;32;34369;-85
2023/05/27 03:14:25;;;;;;;;;;;;;;;19.53;63.98;100187.66;4437500;32;34941;-84
2023/05/27 03:16:53;;;;;;;;;;;;;;;20.10;62.60;100183.16;4437273;32;34496;-83
2023/05/27 03:19:20;;;;;;;;;;;;;;;19.81;62.96;100188.06;4437285;32;33701;-83
2023/05/27 03:21:49;;;;;;;;;;;;;;;20.53;60.65;100183.66;4437354;32;33705;-83
2023/05/27 03:24:19;;;;;;;;;;;;;;;19.72;64.46;100186.19;4410990;32;32611;-82
2023/05/27 03:26:46;;;;;;;;;;;;;;;18.78;66.94;100189.03;4437392;32;34486;-85
2023/05/27 03:29:15;;;;;;;;;;;;;;;18.62;67.23;100188.75;4437217;32;32698;-84
2023/05/27 03:31:42;;;;;;;;;;;;;;;19.25;65.36;100191.59;4438376;32;34042;-84
2023/05/27 03:34:11;;;;;;;;;;;;;;;19.41;65.29;100197.94;4439272;32;33432;-82
2023/05/27 03:36:39;;;;;;;;;;;;;;;19.63;63.91;100197.41;4439365;32;34044;-82
2023/05/27 03:39:06;;;;;;;;;;;;;;;20.66;60.57;100197.84;4439432;32;33891;-82
2023/05/27 03:41:34;;;;;;;;;;;;;;;20.01;61.85;100198.81;4439125;32;33874;-84
2023/05/27 03:44:02;;;;;;;;;;;;;;;21.64;57.31;100192.53;4425635;32;34147;-81
2023/05/27 03:46:31;;;;;;;;;;;;;;;22.45;53.26;100194.66;4425425;32;34581;-82
2023/05/27 03:48:58;;;;;;;;;;;;;;;22.47;53.89;100192.91;4425201;32;32669;-82
2023/05/27 03:51:26;;;;;;;;;;;;;;;22.41;54.20;100192.91;4439095;32;33915;-82
2023/05/27 03:53:53;;;;;;;;;;;;;;;20.76;60.15;100202.31;4450494;32;32427;-85
2023/05/27 03:56:21;;;;;;;;;;;;;;;21.07;58.88;100201.72;4438965;32;34419;-83
2023/05/27 03:58:49;;;;;;;;;;;;;;;21.38;57.11;100193.22;4439064;32;33728;-84
2023/05/27 04:01:16;;;;;;;;;;;;;;;22.65;53.85;100191.19;4439182;32;33820;-81
2023/05/27 04:03:44;;;;;;;;;;;;;;;23.25;52.27;100193.88;4438798;32;34984;-82
2023/05/27 04:06:12;;;;;;;;;;;;;;;22.66;53.38;100193.81;4439130;32;34169;-83
2023/05/27 04:08:41;;;;;;;;;;;;;;;22.06;54.95;100200.63;4438625;32;33466;-83
2023/05/27 04:11:10;;;;;;;;;;;;;;;21.50;56.68;100195.06;4435845;32;33311;-83
2023/05/27 04:13:37;;;;;;;;;;;;;;;21.80;55.77;100197.00;4422191;32;33782;-84
2023/05/27 04:16:07;;;;;;;;;;;;;;;21.92;55.48;100192.66;4438754;32;34198;-84
2023/05/27 04:18:35;;;;;;;;;;;;;;;22.90;52.73;100192.97;4437936;32;34153;-84
2023/05/27 04:21:03;;;;;;;;;;;;;;;23.61;50.69;100192.94;4438498;32;33901;-84
2023/05/27 04:23:30;;;;;;;;;;;;;;;23.65;50.49;100199.97;4437897;32;34237;-83
2023/05/27 04:25:58;;;;;;;;;;;;;;;22.31;54.22;100196.34;4437555;32;34145;-82
2023/05/27 04:28:27;;;;;;;;;;;;;;;24.35;48.21;100195.34;4427176;32;33528;-83
2023/05/27 04:30:58;;;;;;;;;;;;;;;24.40;48.70;100201.50;4438192;32;34110;-83
2023/05/27 04:33:26;;;;;;;;;;;;;;;23.83;50.04;100206.16;4438649;32;34106;-82
2023/05/27 04:35:53;;;;;;;;;;;;;;;21.82;55.61;100212.81;4450980;32;35094;-83
2023/05/27 04:38:21;;;;;;;;;;;;;;;23.36;51.30;100211.50;4431401;32;33699;-82
2023/05/27 04:40:53;;;;;;;;;;;;;;;22.52;52.57;100209.66;4438472;32;33605;-84
2023/05/27 04:43:21;;;;;;;;;;;;;;;22.22;53.49;100214.78;4436739;32;34051;-84
2023/05/27 04:45:48;;;;;;;;;;;;;;;22.09;53.43;100217.34;4438579;32;34561;-82
2023/05/27 04:48:16;;;;;;;;;;;;;;;22.38;53.61;100216.63;4445936;32;34907;-85
2023/05/27 04:50:44;;;;;;;;;;;;;;;22.63;51.96;100214.06;4438733;32;34209;-82
2023/05/27 04:53:12;;;;;;;;;;;;;;;24.06;47.98;100212.22;4440767;32;33908;-85
2023/05/27 04:55:41;;;;;;;;;;;;;;;25.55;44.91;100217.47;4434267;32;34668;-83
2023/05/27 04:58:08;;;;;;;;;;;;;;;26.82;41.61;100207.94;4438790;32;33544;-83
2023/05/27 05:00:38;;;;;;;;;;;;;;;26.60;40.75;100211.84;4440557;32;34640;-80
2023/05/27 05:03:07;;;;;;;;;;;;;;;26.65;40.92;100209.97;4424788;32;35473;-83
2023/05/27 05:05:35;;;;;;;;;;;;;;;25.95;42.20;100212.66;4438543;32;34895;-80
2023/05/27 05:08:04;;;;;;;;;;;;;;;25.94;42.22;100216.22;4438517;32;33680;-81
2023/05/27 05:10:31;;;;;;;;;;;;;;;24.86;43.98;100226.84;4438802;32;33524;-80
2023/05/27 05:12:59;;;;;;;;;;;;;;;23.60;47.40;100228.19;4425060;32;34007;-80
2023/05/27 05:15:27;;;;;;;;;;;;;;;25.68;43.17;100230.59;4438507;32;33600;-82
2023/05/27 05:17:55;;;;;;;;;;;;;;;22.49;49.98;100228.09;4438742;32;33429;-80
2023/05/27 05:20:26;;;;;;;;;;;;;;;25.59;43.59;100230.66;4424387;32;34010;-79
2023/05/27 05:22:55;;;;;;;;;;;;;;;24.57;44.49;100225.28;4438256;32;34337;-79
2023/05/27 05:25:23;;;;;;;;;;;;;;;23.53;46.75;100227.34;4438743;32;34625;-80
2023/05/27 05:27:52;;;;;;;;;;;;;;;24.35;45.90;100229.75;4446365;32;33616;-83
2023/05/27 05:30:20;;;;;;;;;;;;;;;25.80;41.66;100228.72;4440962;32;35007;-81
2023/05/27 05:32:47;;;;;;;;;;;;;;;25.90;40.75;100225.94;4438453;32;33280;-83
2023/05/27 05:35:15;;;;;;;;;;;;;;;25.21;42.83;100236.31;4430722;32;34933;-82
2023/05/27 05:37:43;;;;;;;;;;;;;;;25.72;41.38;100239.41;4444962;32;33114;-83
2023/05/27 05:40:10;;;;;;;;;;;;;;;26.51;40.18;100234.06;4437795;32;33888;-83
2023/05/27 05:42:39;;;;;;;;;;;;;;;27.11;38.64;100235.84;4440730;32;32602;-83
2023/05/27 05:45:06;;;;;;;;;;;;;;;26.51;38.81;100238.50;4428057;32;34938;-80
2023/05/27 05:47:34;;;;;;;;;;;;;;;26.02;40.74;100251.50;4438736;32;34385;-81
2023/05/27 05:50:02;;;;;;;;;;;;;;;27.22;37.77;100241.00;4438339;32;34767;-79
2023/05/27 05:52:30;;;;;;;;;;;;;;;27.28;38.21;100246.25;4433622;32;34148;-82
2023/05/27 05:54:58;;;;;;;;;;;;;;;26.65;38.90;100241.88;4434155;32;34912;-79
2023/05/27 05:57:25;;;;;;;;;;;;;;;26.38;39.84;100249.28;4430562;32;33898;-82
2023/05/27 05:59:53;;;;;;;;;;;;;;;26.26;39.60;100244.13;4426388;32;34860;-84
2023/05/27 06:02:20;;;;;;;;;;;;;;;26.59;38.87;100252.59;4429215;32;34842;-83
2023/05/27 06:04:47;;;;;;;;;;;;;;;27.43;36.86;100253.97;4434759;32;33981;-82
2023/05/27 06:07:15;;;;;;;;;;;;;;;27.05;37.35;100257.22;4438890;32;34539;-83
2023/05/27 06:09:44;;;;;;;;;;;;;;;28.00;35.82;100258.25;4441082;32;34864;-83
2023/05/27 06:12:12;;;;;;;;;;;;;;;28.33;35.41;100263.81;4443210;32;33539;-83
2023/05/27 06:14:40;;;;;;;;;;;;;;;27.35;36.71;100268.28;4439083;32;34042;-81
2023/05/27 06:17:08;;;;;;;;;;;;;;;27.33;36.87;100270.09;4425023;32;33637;-85
2023/05/27 06:19:35;;;;;;;;;;;;;;;27.87;36.47;100267.34;4436914;32;35031;-82
2023/05/27 06:22:05;;;;;;;;;;;;;;;27.98;35.97;100273.41;4444336;32;32933;-82
2023/05/27 06:24:34;;;;;;;;;;;;;;;26.55;38.89;100282.72;4435287;32;34369;-85
2023/05/27 06:27:02;;;;;;;;;;;;;;;25.87;41.01;100283.47;4434881;32;33560;-83
2023/05/27 06:29:30;;;;;;;;;;;;;;;26.03;40.03;100295.72;4447155;32;34761;-84
2023/05/27 06:31:58;;;;;;;;;;;;;;;27.35;37.41;100294.91;4436694;32;33705;-81
2023/05/27 06:34:25;;;;;;;;;;;;;;;27.71;36.77;100295.19;4442454;32;34304;-83
2023/05/27 06:36:53;;;;;;;;;;;;;;;26.39;38.09;100304.16;4423878;32;33680;-82
2023/05/27 06:39:20;;;;;;;;;;;;;;;26.90;37.57;100281.37;4412440;32;34021;-81
2023/05/27 06:41:48;;;;;;;;;;;;;;;25.90;38.75;100291.37;4437905;32;34295;-85
2023/05/27 06:44:19;;;;;;;;;;;;;;;26.40;38.27;100289.97;4439591;32;33810;-83
2023/05/27 06:46:47;;;;;;;;;;;;;;;27.14;36.54;100294.31;4429512;32;32634;-83
2023/05/27 06:49:14;;;;;;;;;;;;;;;28.57;34.13;100288.25;4437295;32;34510;-84
2023/05/27 06:51:43;;;;;;;;;;;;;;;27.10;36.89;100292.62;4437659;32;34762;-79
2023/05/27 06:54:12;;;;;;;;;;;;;;;24.66;40.61;100295.84;4437427;32;32794;-82
2023/05/27 06:56:40;;;;;;;;;;;;;;;24.15;42.52;100301.31;4443009;32;33743;-82
2023/05/27 06:59:10;;;;;;;;;;;;;;;24.52;41.00;100296.78;4434075;32;33059;-84
2023/05/27 07:01:37;;;;;;;;;;;;;;;26.44;37.02;100302.34;4431588;32;33941;-74
2023/05/27 07:04:05;;;;;;;;;;;;;;;26.88;36.32;100302.66;4437402;32;34490;-82
2023/05/27 07:06:37;;;;;;;;;;;;;;;26.06;37.34;100301.00;4442029;32;33330;-84
2023/05/27 07:09:04;;;;;;;;;;;;;;;25.91;37.77;100306.47;4423486;32;33341;-80
2023/05/27 07:11:32;;;;;;;;;;;;;;;27.51;34.91;100293.75;4434668;32;35003;-81
2023/05/27 07:14:00;;;;;;;;;;;;;;;26.82;35.84;100308.94;4417258;32;34751;-81
2023/05/27 07:16:28;;;;;;;;;;;;;;;28.36;33.64;100301.06;4420060;32;33164;-83
2023/05/27 07:18:56;;;;;;;;;;;;;;;28.85;33.25;100303.62;4423400;32;34334;-82
2023/05/27 07:21:24;;;;;;;;;;;;;;;26.99;36.29;100305.19;4431972;32;34655;-84
2023/05/27 07:23:52;;;;;;;;;;;;;;;26.34;36.74;100310.44;4433755;32;33872;-86
2023/05/27 07:26:20;;;;;;;;;;;;;;;27.23;35.44;100310.09;4434609;32;33634;-85
2023/05/27 07:28:47;;;;;;;;;;;;;;;26.97;36.69;100317.63;4432811;32;34301;-85
2023/05/27 07:31:16;;;;;;;;;;;;;;;27.89;35.67;100310.84;4426955;32;34030;-84
2023/05/27 07:33:45;;;;;;;;;;;;;;;27.11;36.20;100310.31;4433161;32;34868;-86
2023/05/27 07:36:13;;;;;;;;;;;;;;;28.51;34.01;100309.62;4433867;32;34328;-81
2023/05/27 07:38:40;;;;;;;;;;;;;;;28.06;33.81;100307.00;4433258;32;33667;-84
2023/05/27 07:41:08;;;;;;;;;;;;;;;28.54;33.35;100307.81;4434294;32;35124;-83
2023/05/27 07:43:35;;;;;;;;;;;;;;;28.84;32.29;100313.41;4431735;32;33608;-84
2023/05/27 07:46:03;;;;;;;;;;;;;;;29.23;32.21;100299.22;4432359;32;32491;-84
2023/05/27 07:48:31;;;;;;;;;;;;;;;30.09;31.02;100299.69;4432890;32;33048;-87
2023/05/27 07:50:59;;;;;;;;;;;;;;;31.00;30.02;100297.03;4433704;32;33855;-85
2023/05/27 07:53:27;;;;;;;;;;;;;;;31.81;28.53;100294.34;4430321;32;34982;-82
2023/05/27 07:55:54;;;;;;;;;;;;;;;32.03;26.55;100296.31;4430078;32;33717;-84
2023/05/27 07:58:21;;;;;;;;;;;;;;;32.94;26.38;100301.81;4431786;32;34225;-86
2023/05/27 08:00:49;;;;;;;;;;;;;;;33.15;26.75;100291.16;4430758;32;33440;-84
2023/05/27 08:03:17;;;;;;;;;;;;;;;31.39;29.13;100286.84;4430475;32;35260;-85
2023/05/27 08:05:45;;;;;;;;;;;;;;;31.25;28.51;100287.28;4428428;32;33192;-87
2023/05/27 08:08:15;;;;;;;;;;;;;;;31.36;28.66;100284.28;4436703;32;34409;-87
2023/05/27 08:10:45;;;;;;;;;;;;;;;31.77;27.82;100283.81;4438849;32;34712;-82
2023/05/27 08:13:14;;;;;;;;;;;;;;;31.94;28.04;100281.41;4437118;32;34183;-85
2023/05/27 08:15:42;;;;;;;;;;;;;;;31.99;28.21;100278.53;4434998;32;33264;-87
2023/05/27 08:18:10;;;;;;;;;;;;;;;33.07;27.03;100278.91;4438290;32;35077;-85
2023/05/27 08:20:37;;;;;;;;;;;;;;;32.80;26.85;100271.97;4437571;32;34151;-84
2023/05/27 08:23:05;;;;;;;;;;;;;;;33.07;25.80;100278.91;4438355;32;34593;-83
2023/05/27 08:25:33;;;;;;;;;;;;;;;34.74;24.07;100269.00;4437284;32;33370;-83
2023/05/27 08:28:01;;;;;;;;;;;;;;;35.03;23.11;100270.25;4444627;32;33857;-84
2023/05/27 08:30:29;;;;;;;;;;;;;;;34.21;24.30;100270.50;4439743;32;33733;-83
2023/05/27 08:32:58;;;;;;;;;;;;;;;33.72;25.70;100273.56;4443360;32;34485;-84
2023/05/27 08:35:26;;;;;;;;;;;;;;;34.47;24.42;100272.88;4445243;32;34321;-82
2023/05/27 08:37:53;;;;;;;;;;;;;;;33.73;25.03;100275.31;4435905;32;34270;-83
2023/05/27 08:40:22;;;;;;;;;;;;;;;33.29;25.62;100272.69;4438186;32;34044;-82
2023/05/27 08:42:51;;;;;;;;;;;;;;;34.34;24.16;100276.22;4438485;32;34116;-83
2023/05/27 08:45:19;;;;;;;;;;;;;;;34.31;23.84;100270.97;4436747;32;32698;-83
2023/05/27 08:47:48;;;;;;;;;;;;;;;33.56;25.99;100272.47;4440139;32;34570;-83
2023/05/27 08:50:16;;;;;;;;;;;;;;;33.78;25.60;100278.66;4425144;32;34145;-82
2023/05/27 08:52:47;;;;;;;;;;;;;;;33.94;24.01;100275.28;4436942;32;34192;-82
2023/05/27 08:55:20;;;;;;;;;;;;;;;32.78;25.91;100269.38;4442351;32;33666;-83
2023/05/27 08:57:53;;;;;;;;;;;;;;;33.03;25.84;100266.56;4423736;32;34014;-83
2023/05/27 09:00:21;;;;;;;;;;;;;;;31.40;27.65;100269.84;4434938;32;34731;-84
2023/05/27 09:02:49;;;;;;;;;;;;;;;31.32;27.80;100277.28;4427332;32;32735;-84
2023/05/27 09:05:18;;;;;;;;;;;;;;;31.38;28.22;100274.37;4437005;32;33665;-83
2023/05/27 09:07:46;;;;;;;;;;;;;;;32.29;26.96;100266.72;4445281;32;33934;-84
2023/05/27 09:10:13;;;;;;;;;;;;;;;33.04;25.21;100270.97;4440478;32;33614;-83
2023/05/27 09:12:42;;;;;;;;;;;;;;;29.85;32.22;100266.53;4449302;32;34282;-83
2023/05/27 09:15:10;;;;;;;;;;;;;;;31.50;28.46;100265.97;4430401;32;33595;-82
2023/05/27 09:17:41;;;;;;;;;;;;;;;31.99;27.32;100265.16;4429272;32;34066;-83
2023/05/27 09:20:10;;;;;;;;;;;;;;;33.37;25.40;100270.56;4439297;32;32973;-83
2023/05/27 09:22:38;;;;;;;;;;;;;;;33.63;24.84;100256.06;4433961;32;33092;-83
2023/05/27 09:25:06;;;;;;;7.60;3.80;;;;;;;34.23;23.36;100261.47;4437251;32;33690;-82
2023/05/27 09:27:34;;;;;;;;;;;;;;;31.79;25.24;100255.16;4442187;32;34602;-82
2023/05/27 09:30:08;;;;;;;;;;;;;;;31.26;27.13;100261.44;4448508;32;33628;-83
2023/05/27 09:32:35;;;;;;;;;;;;;;;31.67;27.46;100251.13;4439983;32;35258;-83
2023/05/27 09:35:05;;;;;;;;;;;;;;;30.96;27.92;100254.37;4447108;32;33651;-83
2023/05/27 09:37:34;;;;;;;;;;;;;;;31.57;26.35;100255.94;4436902;32;33899;-83
2023/05/27 09:40:05;;;;;;;;;;;;;;;31.34;27.06;100254.88;4440957;32;33860;-83
2023/05/27 09:42:42;;;;;;;;;;;;;;;31.53;27.22;100252.47;4438679;32;34652;-82
2023/05/27 09:45:12;;;;;;;;;;;;;;;31.66;27.13;100249.34;4444968;32;33682;-84
2023/05/27 09:47:41;;;;;;;;;;;;;;;31.48;27.61;100254.44;4443894;32;34018;-82
2023/05/27 09:50:09;;;;;;;;;;;;;;;30.82;28.56;100256.56;4440083;32;34313;-83
2023/05/27 09:52:39;;;;;;;;;;;;;;;31.54;25.96;100251.56;4447849;32;34706;-83
2023/05/27 09:55:15;;;;;;;;;;;;;;;31.62;26.93;100253.06;4442723;32;33443;-83
2023/05/27 09:57:42;;;;;;;;;;;;;;;32.46;25.24;100257.19;4429037;32;33989;-83
2023/05/27 10:00:17;;;;;;;;;;;;;;;33.07;25.72;100248.50;4433062;32;33743;-82
2023/05/27 10:02:45;;;;;;;;;;;;;;;33.19;25.75;100247.19;4435332;32;34882;-83
2023/05/27 10:05:13;;;;;;;;;;;;;;;32.81;25.38;100246.91;4426365;32;33083;-83
2023/05/27 10:07:41;;;;;;;;;;;;;;;32.93;25.24;100243.72;4442803;32;33982;-82
2023/05/27 10:10:28;;;;;;;;;;;;;;;33.89;24.26;100249.50;4424524;32;33742;-82
2023/05/27 10:12:56;;;;;;;;;;;;;;;33.97;23.69;100240.22;4447220;32;35069;-83
2023/05/27 10:15:24;;;;;;;;;;;;;;;32.63;25.53;100233.28;4445418;32;33377;-82
2023/05/27 10:17:58;;;;;;;;;;;;;;;31.43;27.84;100226.03;4448182;32;33347;-83
2023/05/27 10:20:33;;;;;;;;;;;;;;;30.52;29.32;100237.88;4422835;32;33914;-84
2023/05/27 10:23:12;;;;;;;;;;;;;;;30.28;29.27;100234.09;4437208;32;33842;-83
2023/05/27 10:25:40;;;;;;;;;;;;;;;30.24;29.28;100237.78;4437414;32;33196;-85
2023/05/27 10:28:08;;;;;;;;;;;;;;;30.27;29.40;100232.38;4422312;32;35010;-82
2023/05/27 10:30:45;;;;;;;;;;;;;;;29.98;29.12;100242.09;4412420;32;33658;-84
2023/05/27 10:33:13;;;;;;;;;;;;;;;30.09;29.78;100238.22;4434883;32;35084;-83
2023/05/27 10:35:41;;;;;;;;;;;;;;;29.52;30.35;100234.44;4429165;32;32158;-81
2023/05/27 10:38:17;;;;;;;;;;;;;;;29.85;29.14;100246.03;4442612;32;33607;-82
2023/05/27 10:40:45;;;;;;;;;;;;;;;31.26;27.08;100234.66;4432494;32;34168;-83
2023/05/27 10:43:19;;;;;;;;;;;;;;;32.17;26.23;100235.03;4435375;32;34734;-85
2023/05/27 10:45:46;;;;;;;;;;;;;;;30.73;27.88;100231.00;4435054;32;33141;-84
2023/05/27 10:48:20;;;;;;;;;;;;;;;31.03;27.23;100228.28;4440529;32;34316;-83
2023/05/27 10:50:51;;;;;;;;;;;;;;;32.96;24.26;100224.81;4444123;32;34114;-82
2023/05/27 10:53:20;;;;;;;;;;;;;;;32.23;25.61;100224.06;4434606;32;34981;-83
2023/05/27 10:55:48;;;;;;;;;;;;;;;30.54;29.35;100213.78;4417115;32;34144;-83
2023/05/27 10:58:16;;;;;;;;;;;;;;;31.24;28.06;100228.50;4420107;32;34101;-82
2023/05/27 11:00:50;;;;;;;;;;;;;;;28.51;29.43;100219.97;4421513;32;32226;-83
2023/05/27 11:03:18;;;;;;;;;;;;;;;29.30;29.52;100226.09;4435107;32;34090;-82
2023/05/27 11:05:45;;;;;;;;;;;;;;;30.20;28.63;100222.78;4435281;32;34364;-83
2023/05/27 11:08:13;;;;;;;;;;;;;;;31.55;26.34;100220.31;4438247;32;34289;-83
2023/05/27 11:10:41;;;;;;;;;;;;;;;31.02;28.78;100223.81;4443508;32;33473;-83
2023/05/27 11:13:08;;;;;;;;;;;;;;;32.60;25.35;100209.25;4431979;32;34168;-83
2023/05/27 11:15:39;;;;;;;;;;;;;;;32.86;24.37;100213.59;4436768;32;33493;-83
2023/05/27 11:18:07;;;;;;;;;;;;;;;32.64;25.57;100212.69;4443947;32;34778;-83
2023/05/27 11:20:35;;;;;;;;;;;;;;;31.74;27.48;100212.50;4444146;32;35211;-85
2023/05/27 11:23:03;;;;;;;;;;;;;;;31.54;26.57;100214.06;4442421;32;35085;-84
2023/05/27 11:25:43;;;;;;;;;;;;;;;31.22;28.04;100211.62;4438056;32;33594;-84
2023/05/27 11:28:16;;;;;;;;;;;;;;;32.19;27.53;100206.37;4437962;32;34806;-83
2023/05/27 11:30:43;;;;;;;;;;;;;;;31.72;25.27;100200.97;4436401;32;34735;-83
2023/05/27 11:33:13;;;;;;;;;;;;;;;31.05;27.34;100205.00;4440682;32;33487;-83
2023/05/27 11:36:07;;;;;;;;;;;;;;;31.13;28.32;100205.63;4434439;32;33157;-83
2023/05/27 11:38:47;;;;;;;;;;;;;;;30.64;28.17;100195.66;4430573;32;34118;-83
2023/05/27 11:41:18;;;;;;;;;;;;;;;32.26;26.60;100205.22;4443549;32;34269;-83
2023/05/27 11:43:54;;;;;;;;;;;;;;;32.81;25.79;100196.78;4425592;32;34395;-83
2023/05/27 11:46:22;;;;;;;;;;;;;;;34.31;23.62;100198.34;4436444;32;34320;-83
2023/05/27 11:48:49;;;;;;;;;;;;;;;32.00;26.70;100200.78;4421262;32;34190;-83
2023/05/27 11:51:17;;;;;;;;;;;;;;;31.62;26.96;100204.88;4443176;32;34033;-83
2023/05/27 11:53:45;;;;;;;;;;;;;;;31.16;27.43;100202.00;4438714;32;35271;-82
2023/05/27 11:56:13;;;;;;;;;;;;;;;32.99;24.77;100205.88;4438721;32;34117;-83
2023/05/27 11:58:41;;;;;;;;;;;;;;;32.54;25.18;100201.44;4434359;32;34680;-83
2023/05/27 12:01:09;;;;;;;;;;;;;;;32.97;24.37;100198.84;4443390;32;34270;-83
2023/05/27 12:03:36;;;;;;;;;;;;;;;34.11;22.91;100181.31;4437324;32;34848;-83
2023/05/27 12:06:03;;;;;;;;;;;;;;;33.27;24.30;100191.34;4438891;32;33627;-82
2023/05/27 12:08:31;;;;;;;;;;;;;;;32.12;25.58;100186.09;4426981;32;34423;-84
2023/05/27 12:10:58;;;;;;;;;;;;;;;29.96;29.09;100185.19;4432840;32;34973;-82
2023/05/27 12:13:25;;;;;;;;;;;;;;;31.96;25.65;100177.72;4449461;32;34486;-82
2023/05/27 12:15:53;;;;;;;;;;;;;;;31.77;25.19;100171.31;4438961;32;33534;-83
2023/05/27 12:18:21;;;;;;;;;;;;;;;31.23;26.17;100173.19;4437831;32;33774;-83
2023/05/27 15:38:16;;;;;;;12.77;6.87;;;;;;;25.82;41.96;100046.47;4485460;31;822646;-83
2023/05/27 15:40:46;;;;;;;10.65;5.97;;;;;;;25.82;41.96;100046.47;4508159;31;33106;-82
2023/05/27 15:43:15;;;;;;;16.20;6.75;;;;;;;26.00;39.93;100040.03;4500071;31;34450;-82
2023/05/27 15:45:43;;;;;;;11.35;5.80;;;;;;;25.79;40.73;100049.19;4501582;31;33568;-82
2023/05/27 15:48:30;;;;;;;10.65;6.20;;;;;;;25.66;40.06;100041.38;4480156;31;32927;-81
2023/05/27 15:50:58;;;;;;;10.55;6.12;;;;;;;25.78;39.75;100042.09;4482198;31;33497;-82
2023/05/27 15:53:26;;;;;;;11.93;6.30;;;;;;;25.44;41.70;100048.72;4498112;31;33642;-83
2023/05/27 15:55:54;;;;;;;11.85;6.47;;;;;;;25.99;40.63;100047.13;4483881;31;32114;-82
2023/05/27 15:58:21;;;;;;;11.18;6.20;;;;;;;25.45;41.88;100041.66;4501434;31;33044;-83